Terminal Aerodrome Forecast
Issued by NWS Jackson, KY

Home | Current Version | Previous Version | Text Only | Print | Product List | Glossary On
Versions: 1 2 3 4 5 6 7 8 9 10 11 12 13
613
FTUS43 KJKL 271952 AAB
TAFLOZ
TAF AMD
KLOZ 271952Z 2720/2818 24016G21KT P6SM VCSH FEW040 FEW050 SCT070
     FM272200 26010KT P6SM FEW020 SCT040 BKN090
     FM280000 26007KT P6SM FEW040 SCT120
     FM281100 VRB03KT P6SM FEW120=

USA.gov is the U.S. government's official web portal to all federal, state and local government web resources and services.